sensor_id;sensor_type;location;lat;lon;timestamp;pressure;altitude;pressure_sealevel;temperature;humidity
71565;BME280;59397;50.952;14.502;2023-07-09T00:09:36;976.67;;;12.15;100.00
71565;BME280;59397;50.952;14.502;2023-07-09T00:29:09;976.67;;;12.23;99.80
71565;BME280;59397;50.952;14.502;2023-07-09T00:48:41;976.68;;;11.69;100.00
71565;BME280;59397;50.952;14.502;2023-07-09T01:08:14;976.67;;;11.35;100.00
71565;BME280;59397;50.952;14.502;2023-07-09T01:27:51;976.68;;;12.04;98.88
71565;BME280;59397;50.952;14.502;2023-07-09T01:47:21;976.65;;;11.19;100.00
71565;BME280;59397;50.952;14.502;2023-07-09T02:06:55;976.69;;;11.58;100.00
71565;BME280;59397;50.952;14.502;2023-07-09T02:26:29;976.71;;;10.93;100.00
71565;BME280;59397;50.952;14.502;2023-07-09T02:45:59;976.86;;;10.20;100.00
71565;BME280;59397;50.952;14.502;2023-07-09T03:05:36;976.78;;;10.58;100.00
71565;BME280;59397;50.952;14.502;2023-07-09T03:25:08;976.96;;;10.69;100.00
71565;BME280;59397;50.952;14.502;2023-07-09T03:44:44;976.87;;;11.45;99.82
71565;BME280;59397;50.952;14.502;2023-07-09T04:04:19;976.95;;;11.88;99.13
71565;BME280;59397;50.952;14.502;2023-07-09T04:23:55;977.03;;;12.44;100.00
71565;BME280;59397;50.952;14.502;2023-07-09T04:43:34;977.14;;;14.17;96.22
71565;BME280;59397;50.952;14.502;2023-07-09T05:03:14;977.16;;;16.64;87.64
71565;BME280;59397;50.952;14.502;2023-07-09T05:22:55;977.13;;;18.56;85.51
71565;BME280;59397;50.952;14.502;2023-07-09T05:42:37;977.17;;;20.51;82.32
71565;BME280;59397;50.952;14.502;2023-07-09T06:02:18;977.06;;;21.65;77.87
71565;BME280;59397;50.952;14.502;2023-07-09T06:21:54;977.01;;;22.74;66.90
71565;BME280;59397;50.952;14.502;2023-07-09T06:41:32;977.11;;;23.47;61.10
71565;BME280;59397;50.952;14.502;2023-07-09T07:01:11;977.09;;;24.39;47.61
71565;BME280;59397;50.952;14.502;2023-07-09T07:20:47;977.11;;;25.26;39.22
71565;BME280;59397;50.952;14.502;2023-07-09T07:40:25;977.14;;;26.13;34.70
71565;BME280;59397;50.952;14.502;2023-07-09T08:00:04;977.14;;;26.24;34.10
71565;BME280;59397;50.952;14.502;2023-07-09T08:39:13;976.98;;;27.15;32.57
71565;BME280;59397;50.952;14.502;2023-07-09T08:58:49;977.08;;;27.16;33.98
71565;BME280;59397;50.952;14.502;2023-07-09T09:18:26;977.01;;;27.82;33.66
71565;BME280;59397;50.952;14.502;2023-07-09T09:37:59;977.13;;;27.79;34.67
71565;BME280;59397;50.952;14.502;2023-07-09T09:57:36;976.99;;;28.71;34.88
71565;BME280;59397;50.952;14.502;2023-07-09T10:17:14;977.06;;;29.08;33.58
71565;BME280;59397;50.952;14.502;2023-07-09T10:36:46;976.89;;;28.78;35.98
71565;BME280;59397;50.952;14.502;2023-07-09T10:56:20;976.81;;;29.61;34.72
71565;BME280;59397;50.952;14.502;2023-07-09T11:54:46;976.43;;;30.26;30.54
71565;BME280;59397;50.952;14.502;2023-07-09T12:14:21;976.36;;;30.77;28.93
71565;BME280;59397;50.952;14.502;2023-07-09T12:33:53;976.34;;;29.94;29.48
71565;BME280;59397;50.952;14.502;2023-07-09T12:53:27;976.11;;;30.11;33.11
71565;BME280;59397;50.952;14.502;2023-07-09T13:13:01;975.97;;;30.04;30.23
71565;BME280;59397;50.952;14.502;2023-07-09T13:32:35;976.08;;;29.93;29.18
71565;BME280;59397;50.952;14.502;2023-07-09T13:52:13;975.92;;;29.84;28.63
71565;BME280;59397;50.952;14.502;2023-07-09T14:11:44;975.85;;;29.68;30.42
71565;BME280;59397;50.952;14.502;2023-07-09T14:31:19;975.87;;;29.84;28.88
71565;BME280;59397;50.952;14.502;2023-07-09T14:50:50;975.73;;;29.33;28.35
71565;BME280;59397;50.952;14.502;2023-07-09T15:10:24;975.73;;;29.07;29.61
71565;BME280;59397;50.952;14.502;2023-07-09T15:29:58;975.48;;;28.79;29.81
71565;BME280;59397;50.952;14.502;2023-07-09T15:49:31;975.34;;;28.64;29.99
71565;BME280;59397;50.952;14.502;2023-07-09T16:09:06;975.12;;;28.45;31.93
71565;BME280;59397;50.952;14.502;2023-07-09T16:28:38;975.04;;;27.87;34.05
71565;BME280;59397;50.952;14.502;2023-07-09T16:48:15;974.90;;;27.88;33.11
71565;BME280;59397;50.952;14.502;2023-07-09T17:07:46;974.74;;;27.54;34.14
71565;BME280;59397;50.952;14.502;2023-07-09T17:27:21;974.82;;;27.31;34.24
71565;BME280;59397;50.952;14.502;2023-07-09T17:46:52;974.94;;;25.90;46.55
71565;BME280;59397;50.952;14.502;2023-07-09T18:06:22;974.99;;;24.57;59.68
71565;BME280;59397;50.952;14.502;2023-07-09T18:25:52;975.27;;;23.51;62.90
71565;BME280;59397;50.952;14.502;2023-07-09T18:45:22;975.41;;;22.25;67.87
71565;BME280;59397;50.952;14.502;2023-07-09T19:04:53;975.55;;;21.02;73.37
71565;BME280;59397;50.952;14.502;2023-07-09T19:24:24;975.45;;;19.75;76.09
71565;BME280;59397;50.952;14.502;2023-07-09T19:43:55;975.56;;;19.02;77.93
71565;BME280;59397;50.952;14.502;2023-07-09T20:03:27;975.69;;;18.29;79.04
71565;BME280;59397;50.952;14.502;2023-07-09T20:22:59;975.26;;;17.59;82.28
71565;BME280;59397;50.952;14.502;2023-07-09T20:42:32;975.67;;;17.05;87.47
71565;BME280;59397;50.952;14.502;2023-07-09T21:02:07;975.69;;;16.67;87.90
71565;BME280;59397;50.952;14.502;2023-07-09T21:21:38;975.76;;;16.27;89.84
71565;BME280;59397;50.952;14.502;2023-07-09T21:41:12;975.72;;;16.23;90.24
71565;BME280;59397;50.952;14.502;2023-07-09T22:00:45;975.76;;;15.87;92.83
71565;BME280;59397;50.952;14.502;2023-07-09T22:20:19;975.74;;;15.64;92.98
71565;BME280;59397;50.952;14.502;2023-07-09T22:39:51;975.53;;;15.39;94.90
71565;BME280;59397;50.952;14.502;2023-07-09T22:59:25;975.63;;;15.92;92.16
71565;BME280;59397;50.952;14.502;2023-07-09T23:19:00;975.73;;;15.35;96.18
71565;BME280;59397;50.952;14.502;2023-07-09T23:38:34;975.47;;;15.19;96.15
71565;BME280;59397;50.952;14.502;2023-07-09T23:58:07;975.34;;;14.72;99.67
